Time;durP1;ratioP1;P1;durP2;ratioP2;P2;SDS_P1;SDS_P2;PMS_P1;PMS_P2;Temp;Humidity;BMP_temperature;BMP_pressure;BME280_temperature;BME280_humidity;BME280_pressure;Samples;Min_cycle;Max_cycle;Signal;HPM_P1;HPM_P2
2022/08/29 00:00:13;;;;;;;19.58;6.70;;;16.80;91.20;;;;;;5052485;28;20480;-55
2022/08/29 00:02:39;;;;;;;26.05;7.82;;;16.80;91.20;;;;;;5051163;28;20558;-56
2022/08/29 00:05:08;;;;;;;22.20;7.32;;;16.80;91.20;;;;;;5036773;28;20123;-57
2022/08/29 00:07:36;;;;;;;19.83;7.55;;;16.80;91.40;;;;;;5052570;28;20021;-52
2022/08/29 00:10:02;;;;;;;15.52;6.22;;;16.70;91.40;;;;;;5055031;28;20025;-53
2022/08/29 00:12:30;;;;;;;18.50;7.07;;;16.70;91.50;;;;;;5068141;28;20018;-53
2022/08/29 00:14:56;;;;;;;16.83;6.07;;;16.70;91.60;;;;;;5069131;28;20389;-51
2022/08/29 00:17:22;;;;;;;16.77;5.88;;;16.70;91.70;;;;;;5065165;28;20169;-52
2022/08/29 00:19:50;;;;;;;23.85;6.53;;;16.70;91.70;;;;;;5052314;28;20020;-51
2022/08/29 00:22:15;;;;;;;15.38;6.40;;;16.70;91.80;;;;;;5059508;28;20033;-51
2022/08/29 00:24:42;;;;;;;17.85;6.93;;;16.70;91.80;;;;;;5059182;28;20029;-50
2022/08/29 00:27:09;;;;;;;17.38;6.63;;;16.70;91.90;;;;;;5052853;28;20047;-54
2022/08/29 00:29:36;;;;;;;20.60;6.68;;;16.70;92.00;;;;;;5069199;28;20020;-49
2022/08/29 00:32:06;;;;;;;16.60;7.50;;;16.70;92.00;;;;;;5051417;28;20096;-50
2022/08/29 00:34:33;;;;;;;20.52;8.40;;;16.70;92.00;;;;;;5052495;28;20036;-49
2022/08/29 00:37:00;;;;;;;19.38;10.05;;;16.70;92.00;;;;;;5035541;28;20048;-48
2022/08/29 00:39:27;;;;;;;21.52;8.85;;;16.70;92.00;;;;;;5037955;28;20473;-50
2022/08/29 00:41:55;;;;;;;22.95;9.68;;;16.70;92.00;;;;;;5051215;28;20037;-48
2022/08/29 00:44:23;;;;;;;20.40;9.52;;;16.70;92.00;;;;;;5064267;28;20033;-47
2022/08/29 00:46:54;;;;;;;27.35;11.60;;;16.80;91.90;;;;;;5064922;28;20029;-49
2022/08/29 00:49:26;;;;;;;27.02;10.43;;;16.70;91.90;;;;;;5071016;28;20361;-47
2022/08/29 00:51:54;;;;;;;30.45;11.85;;;16.80;91.90;;;;;;5061801;28;20120;-47
2022/08/29 00:54:24;;;;;;;24.25;11.40;;;16.80;91.90;;;;;;5070689;28;20016;-48
2022/08/29 00:56:52;;;;;;;25.95;11.93;;;16.80;91.90;;;;;;5068637;28;20024;-47
2022/08/29 00:59:37;;;;;;;24.27;11.02;;;16.80;91.90;;;;;;5090608;28;20078;-47
2022/08/29 01:02:06;;;;;;;27.15;11.57;;;16.80;91.90;;;;;;5077829;28;20032;-47
2022/08/29 01:04:33;;;;;;;31.23;12.18;;;16.80;91.90;;;;;;5033540;28;20032;-47
2022/08/29 01:07:00;;;;;;;28.05;11.82;;;16.80;91.90;;;;;;5051554;28;20037;-48
2022/08/29 01:09:31;;;;;;;27.77;11.70;;;16.90;91.90;;;;;;5052959;28;20091;-47
2022/08/29 01:12:16;;;;;;;22.05;11.40;;;16.80;91.90;;;;;;5049744;28;20465;-50
2022/08/29 01:14:57;;;;;;;32.13;12.70;;;16.80;91.90;;;;;;5055015;28;20104;-46
2022/08/29 01:17:36;;;;;;;23.10;10.85;;;16.70;91.80;;;;;;5033844;28;20033;-47
2022/08/29 01:20:22;;;;;;;36.40;11.57;;;16.70;91.80;;;;;;5063218;28;20038;-48
2022/08/29 01:23:06;;;;;;;29.27;10.35;;;16.70;91.90;;;;;;5054529;28;20024;-46
2022/08/29 01:25:42;;;;;;;40.42;14.93;;;16.70;91.90;;;;;;5061165;28;20473;-46
2022/08/29 01:28:26;;;;;;;20.58;10.15;;;16.70;92.00;;;;;;5048873;28;20074;-46
2022/08/29 01:31:15;;;;;;;25.45;9.35;;;16.70;92.00;;;;;;5061572;28;20087;-46
2022/08/29 01:33:48;;;;;;;24.33;9.68;;;16.70;92.00;;;;;;5067490;28;20112;-47
2022/08/29 01:36:17;;;;;;;28.73;10.07;;;16.70;92.00;;;;;;5056698;28;20031;-46
2022/08/29 01:38:43;;;;;;;35.45;10.20;;;16.80;92.00;;;;;;5049320;28;20091;-47
2022/08/29 01:41:10;;;;;;;26.20;10.45;;;16.80;92.00;;;;;;5048943;28;20049;-46
2022/08/29 01:43:47;;;;;;;24.85;10.23;;;16.80;92.10;;;;;;5031258;28;20025;-46
2022/08/29 01:46:18;;;;;;;23.85;9.40;;;16.80;92.10;;;;;;5035517;28;20035;-46
2022/08/29 01:48:44;;;;;;;30.05;10.43;;;16.80;92.10;;;;;;5048541;28;20041;-46
2022/08/29 01:51:11;;;;;;;32.55;13.93;;;16.80;92.00;;;;;;5058708;28;20036;-46
2022/08/29 01:53:37;;;;;;;22.70;9.52;;;16.80;92.00;;;;;;5053408;28;20028;-48
2022/08/29 01:56:33;;;;;;;22.92;9.50;;;16.80;92.00;;;;;;5053628;28;20040;-46
2022/08/29 01:59:04;;;;;;;23.65;9.95;;;16.80;92.10;;;;;;5032192;28;20041;-46
2022/08/29 02:01:37;;;;;;;32.47;11.38;;;16.80;92.10;;;;;;5051856;28;20059;-46
2022/08/29 02:04:05;;;;;;;27.75;11.38;;;16.80;92.10;;;;;;5048691;28;20348;-46
2022/08/29 02:06:30;;;;;;;27.92;10.75;;;16.80;92.10;;;;;;5053083;28;20055;-46
2022/08/29 02:08:56;;;;;;;29.90;9.68;;;16.90;92.10;;;;;;5048778;28;20056;-45
2022/08/29 02:11:22;;;;;;;20.25;9.10;;;16.90;92.10;;;;;;5034357;28;20035;-46
2022/08/29 02:13:54;;;;;;;29.27;9.40;;;16.90;92.10;;;;;;5050991;28;20025;-46
2022/08/29 02:16:21;;;;;;;26.75;8.52;;;16.90;92.10;;;;;;5052847;28;20067;-46
2022/08/29 02:18:47;;;;;;;24.70;10.30;;;16.90;92.10;;;;;;5048300;28;20025;-46
2022/08/29 02:21:21;;;;;;;22.00;9.85;;;16.90;92.10;;;;;;5038066;28;20032;-46
2022/08/29 02:23:51;;;;;;;23.45;8.98;;;16.90;92.00;;;;;;5033994;28;20031;-45
2022/08/29 02:26:20;;;;;;;22.20;8.95;;;16.90;92.00;;;;;;5048481;28;20029;-48
2022/08/29 02:28:50;;;;;;;29.90;11.83;;;16.90;92.00;;;;;;5047963;28;20029;-45
2022/08/29 02:31:17;;;;;;;29.30;9.73;;;17.00;92.00;;;;;;5048465;28;20284;-46
2022/08/29 02:33:43;;;;;;;34.28;10.05;;;17.00;92.00;;;;;;5048079;28;20112;-45
2022/08/29 02:36:09;;;;;;;34.88;10.05;;;17.00;92.00;;;;;;5050350;28;20112;-47
2022/08/29 02:38:35;;;;;;;30.25;10.32;;;17.00;92.00;;;;;;5050521;28;20078;-46
2022/08/29 02:41:01;;;;;;;23.10;9.13;;;17.00;92.00;;;;;;5054933;28;20079;-45
2022/08/29 02:43:27;;;;;;;32.03;9.98;;;17.10;92.00;;;;;;5047384;28;20028;-45
2022/08/29 02:45:53;;;;;;;30.98;10.13;;;17.10;92.00;;;;;;5049265;28;20049;-45
2022/08/29 02:48:20;;;;;;;20.35;9.98;;;17.10;92.00;;;;;;5060289;28;20860;-49
2022/08/29 02:50:48;;;;;;;24.45;9.80;;;17.10;91.90;;;;;;5060898;28;20025;-45
2022/08/29 02:53:16;;;;;;;36.40;10.73;;;17.10;91.90;;;;;;5061115;28;20591;-45
2022/08/29 02:55:41;;;;;;;31.15;10.90;;;17.10;91.90;;;;;;5066777;28;20036;-45
2022/08/29 02:58:09;;;;;;;32.30;10.07;;;17.20;91.90;;;;;;5068419;28;20357;-45
2022/08/29 03:00:40;;;;;;;27.77;10.20;;;17.10;91.90;;;;;;5061739;28;20032;-45
2022/08/29 03:03:06;;;;;;;23.05;8.50;;;17.10;91.90;;;;;;5044583;28;20083;-45
2022/08/29 03:05:34;;;;;;;24.65;8.98;;;17.10;91.90;;;;;;5042158;28;20044;-45
2022/08/29 03:08:02;;;;;;;24.27;9.68;;;17.10;91.80;;;;;;5047832;28;20037;-45
2022/08/29 03:10:28;;;;;;;32.22;9.13;;;17.00;91.70;;;;;;5036887;28;20430;-45
2022/08/29 03:12:54;;;;;;;24.80;9.40;;;17.00;91.70;;;;;;5061879;28;20040;-45
2022/08/29 03:15:21;;;;;;;30.35;9.35;;;17.00;91.80;;;;;;5030845;28;20033;-46
2022/08/29 03:17:47;;;;;;;27.00;8.88;;;17.00;91.70;;;;;;5059233;28;20056;-45
2022/08/29 03:20:15;;;;;;;24.70;8.15;;;16.90;91.80;;;;;;5061903;28;20122;-45
2022/08/29 03:22:43;;;;;;;26.38;8.85;;;16.90;91.80;;;;;;5043362;28;20029;-45
2022/08/29 03:25:11;;;;;;;23.77;9.50;;;16.90;91.90;;;;;;5048330;28;20033;-45
2022/08/29 03:27:37;;;;;;;25.63;9.70;;;16.90;91.90;;;;;;5031169;28;20029;-47
2022/08/29 03:30:04;;;;;;;22.92;9.43;;;16.90;92.00;;;;;;5051402;28;20033;-45
2022/08/29 03:32:30;;;;;;;22.92;8.55;;;16.90;92.00;;;;;;5060037;28;20029;-45
2022/08/29 03:34:56;;;;;;;28.02;8.80;;;16.90;92.10;;;;;;5057145;28;20034;-45
2022/08/29 03:37:21;;;;;;;29.52;10.25;;;16.90;92.10;;;;;;5069916;28;20031;-45
2022/08/29 03:39:49;;;;;;;20.08;8.50;;;16.90;92.10;;;;;;5068328;28;20025;-45
2022/08/29 03:42:15;;;;;;;21.60;8.13;;;16.90;92.10;;;;;;5052146;28;20025;-45
2022/08/29 03:44:41;;;;;;;28.15;10.40;;;16.90;92.10;;;;;;5034833;28;20087;-45
2022/08/29 03:47:08;;;;;;;25.95;10.65;;;16.90;92.20;;;;;;5081843;28;20374;-45
2022/08/29 03:49:34;;;;;;;26.77;8.77;;;16.90;92.20;;;;;;5089318;28;20082;-46
2022/08/29 03:52:00;;;;;;;24.52;9.80;;;16.90;92.10;;;;;;5069947;28;20048;-45
2022/08/29 03:54:26;;;;;;;25.00;9.13;;;16.90;92.20;;;;;;5071368;28;20032;-45
2022/08/29 03:56:52;;;;;;;25.63;9.73;;;17.00;92.20;;;;;;5058651;28;20104;-45
2022/08/29 03:59:18;;;;;;;21.85;8.95;;;17.00;92.20;;;;;;5051945;28;20077;-46
2022/08/29 04:01:46;;;;;;;28.15;8.30;;;17.00;92.10;;;;;;5055423;28;20037;-44
2022/08/29 04:05:05;;;;;;;21.63;9.30;;;17.00;92.10;;;;;;5052497;28;20501;-45
2022/08/29 04:07:00;;;;;;;24.83;8.13;;;17.00;92.10;;;;;;5065577;28;20048;-45
2022/08/29 04:09:26;;;;;;;25.88;9.65;;;17.00;92.10;;;;;;5039444;28;20029;-46
2022/08/29 04:11:51;;;;;;;22.17;8.05;;;17.00;92.10;;;;;;5070192;28;20046;-45
2022/08/29 04:14:19;;;;;;;16.63;7.90;;;17.00;92.00;;;;;;5068777;28;20025;-46
2022/08/29 04:16:49;;;;;;;20.38;8.23;;;17.00;92.10;;;;;;5067567;28;20121;-45
2022/08/29 04:19:16;;;;;;;28.25;9.20;;;17.00;92.10;;;;;;5067343;28;20032;-45
2022/08/29 04:21:41;;;;;;;27.10;9.00;;;17.00;92.10;;;;;;5057730;28;20040;-45
2022/08/29 04:24:07;;;;;;;22.17;9.00;;;17.00;92.10;;;;;;5052080;28;20365;-45
2022/08/29 04:26:33;;;;;;;23.83;8.38;;;17.00;92.00;;;;;;5068011;28;20032;-45
2022/08/29 04:29:00;;;;;;;20.63;6.95;;;17.00;92.00;;;;;;5069267;28;20025;-45
2022/08/29 04:31:25;;;;;;;27.65;8.13;;;16.90;92.00;;;;;;5058879;28;20032;-45
2022/08/29 04:33:53;;;;;;;21.75;7.35;;;16.90;92.00;;;;;;5050321;28;20029;-46
2022/08/29 04:36:18;;;;;;;21.50;7.72;;;16.90;92.00;;;;;;5050819;28;20037;-46
2022/08/29 04:38:44;;;;;;;29.70;8.40;;;16.90;92.00;;;;;;5059222;28;20039;-46
2022/08/29 04:41:16;;;;;;;30.27;8.48;;;16.90;92.00;;;;;;5042822;28;20458;-45
2022/08/29 04:43:47;;;;;;;27.60;9.50;;;16.90;92.00;;;;;;5049596;28;20461;-44
2022/08/29 04:46:14;;;;;;;18.63;8.38;;;16.90;92.10;;;;;;5062569;28;20081;-45
2022/08/29 04:48:39;;;;;;;21.60;6.80;;;16.90;92.10;;;;;;5031918;28;20474;-47
2022/08/29 04:51:05;;;;;;;24.83;8.32;;;16.90;92.00;;;;;;5064501;28;20044;-45
2022/08/29 04:53:31;;;;;;;30.42;8.48;;;16.90;92.00;;;;;;5063448;28;20028;-45
2022/08/29 04:56:00;;;;;;;26.52;8.48;;;16.90;92.10;;;;;;5041889;28;20441;-45
2022/08/29 04:58:26;;;;;;;33.78;8.73;;;16.90;92.00;;;;;;5053092;28;20060;-46
2022/08/29 05:00:52;;;;;;;23.23;7.15;;;16.80;92.10;;;;;;5045497;28;20476;-45
2022/08/29 05:03:19;;;;;;;21.60;7.25;;;16.80;92.10;;;;;;5056394;28;20024;-45
2022/08/29 05:05:53;;;;;;;28.35;8.63;;;16.80;92.10;;;;;;5036409;28;20048;-45
2022/08/29 05:08:19;;;;;;;29.23;8.70;;;16.80;92.10;;;;;;5044372;28;20115;-44
2022/08/29 05:10:46;;;;;;;30.10;8.88;;;16.80;92.10;;;;;;5051382;28;20016;-45
2022/08/29 05:13:12;;;;;;;20.70;8.20;;;16.80;92.20;;;;;;5060074;28;20017;-45
2022/08/29 05:15:38;;;;;;;21.58;7.15;;;16.80;92.20;;;;;;5063446;28;20778;-47
2022/08/29 05:18:03;;;;;;;30.70;8.55;;;16.90;92.30;;;;;;5065722;28;20087;-44
2022/08/29 05:20:31;;;;;;;23.35;7.47;;;16.90;92.40;;;;;;5062694;28;20102;-46
2022/08/29 05:22:57;;;;;;;26.45;9.02;;;16.90;92.50;;;;;;5066186;28;20427;-45
2022/08/29 05:25:24;;;;;;;23.10;7.75;;;17.00;92.50;;;;;;5049654;28;20049;-44
2022/08/29 05:27:50;;;;;;;23.27;8.30;;;17.10;92.50;;;;;;5067823;28;20111;-44
2022/08/29 05:30:16;;;;;;;20.55;7.78;;;17.20;92.50;;;;;;5066122;28;20044;-44
2022/08/29 05:32:42;;;;;;;22.20;8.57;;;17.20;92.50;;;;;;5068869;28;20028;-45
2022/08/29 05:35:10;;;;;;;17.73;7.55;;;17.40;92.50;;;;;;5064975;28;20024;-47
2022/08/29 05:37:38;;;;;;;22.52;7.95;;;17.40;92.40;;;;;;5051740;28;20033;-44
2022/08/29 05:40:04;;;;;;;26.10;7.82;;;17.40;92.30;;;;;;5063130;28;20166;-45
2022/08/29 05:42:30;;;;;;;27.90;8.88;;;17.50;92.20;;;;;;5032422;28;20512;-43
2022/08/29 05:44:56;;;;;;;26.35;7.07;;;17.40;92.10;;;;;;5047247;28;20124;-44
2022/08/29 05:47:22;;;;;;;27.83;8.23;;;17.50;92.10;;;;;;5064505;28;20531;-44
2022/08/29 05:49:51;;;;;;;23.58;7.22;;;17.50;92.00;;;;;;5066068;28;20032;-45
2022/08/29 05:52:22;;;;;;;22.17;8.10;;;17.50;91.90;;;;;;5055608;28;20060;-44
2022/08/29 05:54:50;;;;;;;25.50;7.57;;;17.60;91.90;;;;;;5042184;28;20115;-45
2022/08/29 05:57:22;;;;;;;17.10;7.07;;;17.60;91.80;;;;;;5068216;28;20043;-44
2022/08/29 05:59:50;;;;;;;20.77;7.00;;;17.70;91.80;;;;;;5038405;28;20028;-44
2022/08/29 06:02:17;;;;;;;29.58;8.55;;;17.70;91.60;;;;;;5068122;28;20032;-43
2022/08/29 06:04:43;;;;;;;21.90;6.78;;;17.70;91.50;;;;;;5061708;28;20033;-45
2022/08/29 06:07:09;;;;;;;26.77;8.15;;;17.80;91.40;;;;;;5064224;28;20031;-44
2022/08/29 06:09:37;;;;;;;27.63;8.05;;;17.80;91.40;;;;;;5066488;28;20024;-45
2022/08/29 06:12:04;;;;;;;18.45;6.97;;;17.80;91.30;;;;;;5067105;28;20017;-45
2022/08/29 06:14:30;;;;;;;21.00;6.63;;;17.90;91.20;;;;;;5065273;28;20345;-45
2022/08/29 06:16:55;;;;;;;20.98;7.07;;;17.80;91.10;;;;;;5062133;28;20025;-44
2022/08/29 06:19:21;;;;;;;19.52;6.22;;;17.90;91.10;;;;;;5050929;28;20446;-45
2022/08/29 06:21:49;;;;;;;18.83;5.65;;;17.90;91.10;;;;;;5062684;28;20519;-45
2022/08/29 06:24:19;;;;;;;18.48;6.50;;;17.90;91.10;;;;;;5034045;28;20040;-44
2022/08/29 06:26:47;;;;;;;20.73;6.55;;;17.90;91.10;;;;;;5059673;28;20067;-44
2022/08/29 06:29:13;;;;;;;20.75;5.63;;;17.90;91.00;;;;;;5055432;28;20028;-45
2022/08/29 06:31:41;;;;;;;20.98;5.80;;;17.90;91.00;;;;;;5058761;28;21291;-45
2022/08/29 06:34:08;;;;;;;16.52;7.05;;;18.00;90.90;;;;;;5048137;28;20090;-44
2022/08/29 06:36:34;;;;;;;13.05;5.38;;;18.10;91.00;;;;;;5048934;28;20403;-43
2022/08/29 06:39:05;;;;;;;20.13;6.85;;;18.10;90.90;;;;;;5059236;28;20012;-44
2022/08/29 06:41:31;;;;;;;15.45;5.53;;;18.10;90.80;;;;;;5056401;28;20023;-45
2022/08/29 06:43:58;;;;;;;10.65;4.82;;;18.30;90.70;;;;;;5046209;28;20029;-47
2022/08/29 06:46:31;;;;;;;12.15;5.07;;;18.30;90.40;;;;;;5065467;28;20031;-46
2022/08/29 06:48:58;;;;;;;10.32;3.42;;;18.50;90.10;;;;;;5064928;28;20081;-46
2022/08/29 06:51:25;;;;;;;7.63;3.20;;;18.60;89.60;;;;;;5058400;28;20537;-46
2022/08/29 06:53:51;;;;;;;7.93;2.67;;;18.60;88.60;;;;;;5042891;28;20043;-46
2022/08/29 06:56:17;;;;;;;8.10;2.72;;;18.60;87.60;;;;;;5061660;28;20028;-47
2022/08/29 06:58:46;;;;;;;6.95;2.83;;;18.70;87.50;;;;;;5065260;28;20446;-46
2022/08/29 07:01:14;;;;;;;7.47;2.42;;;18.70;86.90;;;;;;5052820;28;20046;-46
2022/08/29 07:03:43;;;;;;;7.97;2.35;;;18.70;86.60;;;;;;5054416;28;20028;-51
2022/08/29 07:06:09;;;;;;;5.28;2.17;;;18.70;86.60;;;;;;5046045;28;20120;-48
2022/08/29 07:08:37;;;;;;;5.78;1.95;;;18.60;86.60;;;;;;5038911;28;20029;-46
2022/08/29 07:11:03;;;;;;;7.53;2.53;;;18.40;86.60;;;;;;5060740;28;20040;-62
2022/08/29 07:13:33;;;;;;;8.52;2.30;;;18.40;87.20;;;;;;5053411;28;20028;-53
2022/08/29 07:15:59;;;;;;;5.68;2.05;;;18.30;87.70;;;;;;5060947;28;20042;-57
2022/08/29 07:18:24;;;;;;;7.57;2.17;;;18.30;88.20;;;;;;5033086;28;20434;-57
2022/08/29 07:20:51;;;;;;;7.03;1.98;;;18.20;88.40;;;;;;5041792;28;20505;-54
2022/08/29 07:23:17;;;;;;;8.45;2.75;;;18.30;88.60;;;;;;5071665;28;20040;-56
2022/08/29 07:25:42;;;;;;;8.65;2.50;;;18.30;88.70;;;;;;5046803;28;20055;-56
2022/08/29 07:28:08;;;;;;;5.80;2.45;;;18.30;88.80;;;;;;5046356;28;20020;-56
2022/08/29 07:30:34;;;;;;;5.53;1.65;;;18.30;89.00;;;;;;5041818;28;20061;-56
2022/08/29 07:33:02;;;;;;;5.47;1.73;;;18.30;89.00;;;;;;5071140;28;20520;-53
2022/08/29 07:35:32;;;;;;;5.10;2.00;;;18.40;89.00;;;;;;5065690;28;20032;-50
2022/08/29 07:38:00;;;;;;;11.10;3.33;;;18.40;88.80;;;;;;5069827;28;20090;-49
2022/08/29 07:40:26;;;;;;;9.73;3.35;;;18.40;88.90;;;;;;5060391;28;20028;-50
2022/08/29 07:42:52;;;;;;;11.13;3.20;;;18.50;89.00;;;;;;5069458;28;20035;-47
2022/08/29 07:45:17;;;;;;;8.13;2.92;;;18.50;88.80;;;;;;5044623;28;20033;-48
2022/08/29 07:47:43;;;;;;;8.77;3.30;;;18.60;88.60;;;;;;5038244;28;20472;-51
2022/08/29 07:50:11;;;;;;;5.78;2.13;;;18.70;88.30;;;;;;5064521;28;20028;-47
2022/08/29 07:52:39;;;;;;;6.40;2.13;;;18.70;87.70;;;;;;5054654;28;20098;-46
2022/08/29 07:55:06;;;;;;;7.68;2.72;;;18.70;87.40;;;;;;5067962;28;20052;-45
2022/08/29 07:57:32;;;;;;;6.60;2.90;;;18.60;87.10;;;;;;5070123;28;20028;-46
2022/08/29 07:59:59;;;;;;;6.75;2.50;;;18.70;87.20;;;;;;5069644;28;20463;-50
2022/08/29 08:02:25;;;;;;;14.90;3.95;;;18.60;87.20;;;;;;5059659;28;20083;-45
2022/08/29 08:04:51;;;;;;;13.13;2.75;;;18.70;87.50;;;;;;5057945;28;20402;-44
2022/08/29 08:07:17;;;;;;;9.57;1.98;;;18.70;87.10;;;;;;5050706;28;20083;-44
2022/08/29 08:09:43;;;;;;;4.32;2.08;;;18.70;86.30;;;;;;5042545;28;20036;-47
2022/08/29 08:12:09;;;;;;;7.45;2.45;;;18.90;86.40;;;;;;5068146;28;20028;-45
2022/08/29 08:14:35;;;;;;;10.73;2.97;;;18.90;86.20;;;;;;5060725;28;20029;-49
2022/08/29 08:17:01;;;;;;;8.50;2.17;;;18.90;85.70;;;;;;5043476;28;20078;-45
2022/08/29 08:19:29;;;;;;;4.82;1.98;;;18.90;85.90;;;;;;5059459;28;20107;-46
2022/08/29 08:21:58;;;;;;;5.07;2.05;;;18.90;85.60;;;;;;5036287;28;20116;-46
2022/08/29 08:24:26;;;;;;;8.35;3.58;;;18.90;86.00;;;;;;5037155;28;20032;-47
2022/08/29 08:26:51;;;;;;;6.45;2.15;;;18.90;86.70;;;;;;5057529;28;20063;-48
2022/08/29 08:29:17;;;;;;;5.95;2.33;;;18.90;86.80;;;;;;5052483;28;20418;-67
2022/08/29 08:31:45;;;;;;;5.70;1.50;;;18.80;87.30;;;;;;5065088;28;20031;-64
2022/08/29 08:34:14;;;;;;;7.85;1.85;;;18.70;87.70;;;;;;5065917;28;20384;-60
2022/08/29 08:36:41;;;;;;;4.40;1.55;;;18.60;88.40;;;;;;5067322;28;20589;-58
2022/08/29 08:39:10;;;;;;;6.07;1.98;;;18.50;88.70;;;;;;5049501;28;20016;-53
2022/08/29 08:42:24;;;;;;;5.10;2.67;;;18.40;88.80;;;;;;5067738;28;20142;-53
2022/08/29 08:45:11;;;;;;;4.78;1.77;;;18.30;88.60;;;;;;5003782;28;20459;-52
2022/08/29 08:47:48;;;;;;;3.53;1.73;;;18.30;88.70;;;;;;5050171;28;20048;-53
2022/08/29 08:50:38;;;;;;;7.15;2.17;;;18.30;88.90;;;;;;5050022;28;20021;-52
2022/08/29 08:53:06;;;;;;;6.93;1.95;;;18.40;89.30;;;;;;5068698;28;20095;-50
2022/08/29 08:55:40;;;;;;;5.72;1.80;;;18.60;88.90;;;;;;5059035;28;20028;-51
2022/08/29 08:58:30;;;;;;;7.22;2.42;;;18.70;88.50;;;;;;5055081;28;20311;-49
2022/08/29 09:01:00;;;;;;;6.30;2.03;;;19.00;87.70;;;;;;5063861;28;20098;-47
2022/08/29 09:03:45;;;;;;;;;;;19.40;86.90;;;;;;5038552;28;20035;-46
2022/08/29 09:06:36;;;;;;;5.55;1.55;;;19.60;86.20;;;;;;5032197;28;19912;-47
2022/08/29 09:09:29;;;;;;;5.65;1.60;;;19.90;85.20;;;;;;5054042;28;20048;-45
2022/08/29 09:12:19;;;;;;;3.78;1.80;;;19.90;84.30;;;;;;5042266;28;20462;-46
2022/08/29 09:14:56;;;;;;;5.75;1.73;;;20.00;84.20;;;;;;5059156;28;20042;-45
2022/08/29 09:17:43;;;;;;;8.20;2.20;;;20.00;83.70;;;;;;5061108;28;20037;-45
2022/08/29 09:20:15;;;;;;;5.85;1.73;;;20.00;83.50;;;;;;5054328;28;20094;-45
2022/08/29 09:22:50;;;;;;;5.55;1.83;;;20.10;83.80;;;;;;5041078;28;20040;-45
2022/08/29 09:25:18;;;;;;;5.80;1.85;;;20.10;84.10;;;;;;5042840;28;20040;-45
2022/08/29 09:27:44;;;;;;;5.82;1.70;;;20.10;83.50;;;;;;5065835;28;20349;-45
2022/08/29 09:30:20;;;;;;;4.32;1.60;;;20.00;82.90;;;;;;5058095;28;20470;-46
2022/08/29 09:33:01;;;;;;;3.83;1.73;;;20.20;83.50;;;;;;5056455;28;20020;-46
2022/08/29 09:35:42;;;;;;;4.43;1.73;;;20.20;82.80;;;;;;5052557;28;20028;-46
2022/08/29 09:38:17;;;;;;;4.38;1.38;;;20.20;82.50;;;;;;5046501;28;20119;-46
2022/08/29 09:41:02;;;;;;;5.75;1.70;;;20.20;81.90;;;;;;5053120;28;20046;-47
2022/08/29 09:43:37;;;;;;;4.13;1.33;;;20.20;82.40;;;;;;5054057;28;20025;-47
2022/08/29 09:46:17;;;;;;;9.65;1.83;;;20.20;81.90;;;;;;5057520;28;20206;-48
2022/08/29 09:48:49;;;;;;;7.30;1.48;;;20.00;81.20;;;;;;5055678;28;20068;-49
2022/08/29 09:51:30;;;;;;;4.25;1.25;;;20.00;80.60;;;;;;5060966;28;20045;-46
2022/08/29 09:54:11;;;;;;;3.28;1.40;;;20.00;82.20;;;;;;5049833;28;20035;-50
2022/08/29 09:56:47;;;;;;;5.50;1.30;;;20.00;81.90;;;;;;5065125;28;20033;-47
2022/08/29 09:59:20;;;;;;;5.45;1.60;;;20.10;81.80;;;;;;5057951;28;20495;-48
2022/08/29 10:01:46;;;;;;;5.28;1.60;;;20.10;81.50;;;;;;5059396;28;20020;-48
2022/08/29 10:04:12;;;;;;;5.47;1.42;;;20.10;80.80;;;;;;5043354;28;20125;-47
2022/08/29 10:06:39;;;;;;;6.55;1.42;;;20.30;80.20;;;;;;5046567;28;20025;-46
2022/08/29 10:09:07;;;;;;;5.75;2.08;;;20.30;80.50;;;;;;5064274;28;20033;-47
2022/08/29 10:12:01;;;;;;;2.63;1.45;;;20.40;79.70;;;;;;5057184;28;20024;-47
2022/08/29 10:14:53;;;;;;;2.35;1.08;;;20.30;80.20;;;;;;5065878;28;20013;-50
2022/08/29 10:20:14;;;;;;;3.75;1.42;;;20.70;78.40;;;;;;5058092;28;20101;-47
2022/08/29 10:22:46;;;;;;;3.90;1.20;;;20.80;77.60;;;;;;5049326;28;20056;-49
2022/08/29 10:25:31;;;;;;;5.65;1.45;;;20.80;76.70;;;;;;5039640;28;20079;-47
2022/08/29 10:28:31;;;;;;;2.70;1.15;;;20.90;77.80;;;;;;5065625;28;20362;-48
2022/08/29 10:31:34;;;;;;;3.35;0.90;;;20.70;78.30;;;;;;5047513;28;20039;-49
2022/08/29 10:34:12;;;;;;;3.90;1.10;;;20.40;78.00;;;;;;5050611;28;20102;-48
2022/08/29 10:36:42;;;;;;;6.80;1.30;;;20.40;77.40;;;;;;5060865;28;20024;-49
2022/08/29 10:39:38;;;;;;;4.53;1.60;;;20.40;77.30;;;;;;5067793;28;20044;-48
2022/08/29 10:42:10;;;;;;;2.17;1.00;;;20.80;77.60;;;;;;5031832;28;20060;-49
2022/08/29 10:44:55;;;;;;;5.43;1.40;;;21.10;76.80;;;;;;5065400;28;20048;-48
2022/08/29 10:47:39;;;;;;;4.43;1.80;;;21.10;76.80;;;;;;5054769;28;20575;-49
2022/08/29 10:50:37;;;;;;;2.15;1.15;;;21.10;75.80;;;;;;5053294;28;20017;-49
2022/08/29 10:53:09;;;;;;;3.65;1.42;;;21.20;76.40;;;;;;5056888;28;20045;-48
2022/08/29 10:55:40;;;;;;;5.65;1.88;;;21.10;75.20;;;;;;5044714;28;20056;-48
2022/08/29 10:58:29;;;;;;;4.05;1.40;;;21.00;74.70;;;;;;5068087;28;20454;-47
2022/08/29 11:01:02;;;;;;;9.57;1.83;;;21.10;76.70;;;;;;5028415;28;20051;-48
2022/08/29 11:03:34;;;;;;;2.72;1.20;;;20.90;76.80;;;;;;5063107;28;20496;-48
2022/08/29 11:06:25;;;;;;;5.05;1.48;;;21.00;78.00;;;;;;5064388;28;20028;-50
2022/08/29 11:08:57;;;;;;;4.22;1.25;;;21.00;76.80;;;;;;5060930;28;20024;-49
2022/08/29 11:11:24;;;;;;;3.80;1.40;;;21.20;76.70;;;;;;5059732;28;20024;-48
2022/08/29 11:13:59;;;;;;;7.47;1.75;;;21.40;76.00;;;;;;5049597;28;20024;-47
2022/08/29 11:16:32;;;;;;;6.18;1.60;;;21.40;75.20;;;;;;5056731;28;20056;-47
2022/08/29 11:19:09;;;;;;;4.18;0.80;;;21.40;74.80;;;;;;5060578;28;20467;-48
2022/08/29 11:22:14;;;;;;;2.75;1.10;;;21.40;75.60;;;;;;5059138;28;20052;-47
2022/08/29 11:24:43;;;;;;;4.07;1.20;;;21.30;75.10;;;;;;5065289;28;20044;-50
2022/08/29 11:27:46;;;;;;;2.58;1.23;;;21.40;75.90;;;;;;5043932;28;20039;-49
2022/08/29 11:30:24;;;;;;;2.05;1.02;;;21.40;75.40;;;;;;5051504;28;20173;-54
2022/08/29 11:33:15;;;;;;;3.65;1.38;;;21.60;75.90;;;;;;5063533;28;20085;-48
2022/08/29 11:36:07;;;;;;;5.03;1.48;;;21.70;73.90;;;;;;5043790;28;20369;-48
2022/08/29 11:38:53;;;;;;;2.30;1.10;;;21.60;74.90;;;;;;5063700;28;20028;-51
2022/08/29 11:41:30;;;;;;;5.13;1.40;;;21.60;75.10;;;;;;5064284;28;20086;-48
2022/08/29 11:44:07;;;;;;;3.95;1.08;;;21.40;75.00;;;;;;5065283;28;20059;-50
2022/08/29 11:47:01;;;;;;;4.18;1.42;;;21.50;72.70;;;;;;5061050;28;20485;-47
2022/08/29 11:49:34;;;;;;;2.78;1.10;;;21.40;74.00;;;;;;5022312;28;20415;-49
2022/08/29 11:52:19;;;;;;;3.67;1.10;;;21.70;73.20;;;;;;5023377;28;20506;-50
2022/08/29 11:54:53;;;;;;;3.08;1.10;;;21.80;71.80;;;;;;5015243;28;20084;-49
2022/08/29 11:57:36;;;;;;;5.88;1.17;;;21.70;72.60;;;;;;5040945;28;20036;-49
2022/08/29 12:00:21;;;;;;;5.43;1.23;;;21.70;73.00;;;;;;5038535;28;20025;-47
2022/08/29 12:02:47;;;;;;;3.13;1.30;;;21.60;72.80;;;;;;5033382;28;20095;-47
2022/08/29 12:05:16;;;;;;;2.53;1.17;;;21.50;72.30;;;;;;5048407;28;20028;-47
2022/08/29 12:07:47;;;;;;;3.27;1.30;;;21.40;72.40;;;;;;5026168;28;20018;-51
2022/08/29 12:10:25;;;;;;;3.60;1.15;;;21.30;72.40;;;;;;5036810;28;20394;-50
2022/08/29 12:12:55;;;;;;;3.35;1.42;;;21.00;74.20;;;;;;5044600;28;20026;-49
2022/08/29 12:15:31;;;;;;;4.35;1.13;;;20.90;74.70;;;;;;5028887;28;20041;-47
2022/08/29 12:18:12;;;;;;;3.63;0.98;;;20.90;75.60;;;;;;5021823;28;20057;-48
2022/08/29 12:20:41;;;;;;;4.78;1.05;;;20.90;74.40;;;;;;5036349;28;20052;-49
2022/08/29 12:23:09;;;;;;;;;;;20.90;75.10;;;;;;5039407;28;20046;-48
2022/08/29 12:25:55;;;;;;;3.40;1.20;;;20.90;73.70;;;;;;5042756;28;19913;-52
2022/08/29 12:28:22;;;;;;;3.08;1.10;;;20.60;74.10;;;;;;5042115;28;20025;-47
2022/08/29 12:31:00;;;;;;;4.00;0.90;;;20.50;75.00;;;;;;5040369;28;20034;-49
2022/08/29 12:33:35;;;;;;;3.65;1.17;;;20.40;75.40;;;;;;5041023;28;20025;-49
2022/08/29 12:36:06;;;;;;;1.55;0.85;;;20.50;74.90;;;;;;5023926;28;20045;-48
2022/08/29 12:39:13;;;;;;;3.03;1.13;;;20.60;76.50;;;;;;5014713;28;20029;-46
2022/08/29 12:41:41;;;;;;;5.68;1.35;;;20.90;74.70;;;;;;5024103;28;20102;-48
2022/08/29 12:44:12;;;;;;;3.00;1.17;;;20.90;73.50;;;;;;5046943;28;20048;-47
2022/08/29 12:46:41;;;;;;;2.95;1.05;;;20.90;73.80;;;;;;5040689;28;20462;-47
2022/08/29 12:49:38;;;;;;;4.72;1.30;;;20.90;74.80;;;;;;5054599;28;20047;-47
2022/08/29 12:52:10;;;;;;;1.55;0.65;;;20.70;73.00;;;;;;5058061;28;20067;-47
2022/08/29 12:54:40;;;;;;;2.63;0.90;;;20.60;74.40;;;;;;5036407;28;20112;-47
2022/08/29 12:57:18;;;;;;;2.50;0.70;;;20.50;73.80;;;;;;5065340;28;20025;-48
2022/08/29 12:59:51;;;;;;;1.80;0.70;;;20.50;75.00;;;;;;5056650;28;20032;-47
2022/08/29 13:02:33;;;;;;;2.17;1.02;;;20.70;74.80;;;;;;5063129;28;20388;-46
2022/08/29 13:04:59;;;;;;;2.40;0.95;;;20.70;73.40;;;;;;5063495;28;20033;-50